createdAt,value
2023-07-14T07:04:09.001Z,163.13
2023-07-14T07:05:08.965Z,163.13
2023-07-14T07:07:01.830Z,157.50
2023-07-14T07:08:01.781Z,168.75
2023-07-14T07:09:54.683Z,168.75
2023-07-14T07:10:54.623Z,168.75
2023-07-14T07:12:47.492Z,174.38
2023-07-14T07:13:47.477Z,180.00
2023-07-14T07:15:40.372Z,174.38
2023-07-14T07:16:40.367Z,174.38
2023-07-14T07:18:33.222Z,180.00
2023-07-14T07:19:43.367Z,151.88
2023-07-14T07:21:27.033Z,151.88
2023-07-14T07:22:27.111Z,157.50
2023-07-14T07:24:34.838Z,146.25
2023-07-14T07:25:34.784Z,129.38
2023-07-14T07:29:13.881Z,146.25
2023-07-14T07:30:13.843Z,146.25
2023-07-14T07:32:07.632Z,146.25
2023-07-14T07:33:07.618Z,168.75
2023-07-14T07:35:00.550Z,168.75
2023-07-14T07:36:00.384Z,174.38
2023-07-14T07:37:53.306Z,185.63
2023-07-14T07:38:53.246Z,191.25
2023-07-14T07:39:53.232Z,151.88
2023-07-14T07:40:53.207Z,106.88
2023-07-14T07:41:53.201Z,106.88
2023-07-14T07:42:53.202Z,112.50
2023-07-14T07:43:53.146Z,118.13
2023-07-14T07:44:53.128Z,163.13
2023-07-14T07:45:53.148Z,151.88
2023-07-14T07:46:53.172Z,129.38
2023-07-14T07:47:53.112Z,135.00
2023-07-14T07:48:53.048Z,135.00
2023-07-14T07:49:53.031Z,146.25
2023-07-14T07:50:53.073Z,163.13
2023-07-14T07:51:52.992Z,129.38
2023-07-14T07:52:52.969Z,168.75
2023-07-14T07:53:52.951Z,140.63
2023-07-14T07:54:52.933Z,140.63
2023-07-14T07:55:52.911Z,123.75
2023-07-14T07:56:52.891Z,163.13
2023-07-14T07:57:53.832Z,129.38
2023-07-14T07:58:53.251Z,135.00
2023-07-14T07:59:53.516Z,140.63
2023-07-14T08:00:54.701Z,129.38
2023-07-14T08:01:53.143Z,129.38
2023-07-14T08:02:53.318Z,129.38
2023-07-14T08:03:53.153Z,151.88
2023-07-14T08:04:52.921Z,163.13
2023-07-14T08:05:53.003Z,135.00
2023-07-14T08:06:52.819Z,135.00
2023-07-14T08:07:52.766Z,123.75
2023-07-14T08:08:52.788Z,135.00
2023-07-14T08:09:52.640Z,123.75
2023-07-14T08:10:52.625Z,135.00
2023-07-14T08:11:52.622Z,135.00
2023-07-14T08:12:52.578Z,146.25
2023-07-14T08:13:52.583Z,129.38
2023-07-14T08:14:52.563Z,118.13
2023-07-14T08:15:52.811Z,118.13
2023-07-14T08:16:52.539Z,112.50
2023-07-14T08:17:52.518Z,123.75
2023-07-14T08:18:53.261Z,146.25
2023-07-14T08:19:52.450Z,163.13
2023-07-14T08:20:52.439Z,174.38
2023-07-14T08:21:52.412Z,185.63
2023-07-14T08:22:52.460Z,135.00
2023-07-14T08:23:52.382Z,146.25
2023-07-14T08:24:52.394Z,140.63
2023-07-14T08:25:52.336Z,157.50
2023-07-14T08:26:52.313Z,174.38
2023-07-14T08:27:52.318Z,180.00
2023-07-14T08:28:52.281Z,185.63
2023-07-14T08:29:52.266Z,196.88
2023-07-14T08:30:52.241Z,185.63
2023-07-14T08:31:52.288Z,174.38
2023-07-14T08:32:52.260Z,196.88
2023-07-14T08:33:52.832Z,196.88
2023-07-14T08:34:52.164Z,208.13
2023-07-14T08:35:52.165Z,196.88
2023-07-14T08:36:52.133Z,208.13
2023-07-14T08:37:52.130Z,146.25
2023-07-14T08:38:52.111Z,163.13
2023-07-14T08:41:39.408Z,112.50
2023-07-14T08:42:32.219Z,118.13
2023-07-14T08:44:25.092Z,135.00
2023-07-14T08:45:25.065Z,163.13
2023-07-14T08:46:25.069Z,140.63
2023-07-14T08:47:25.075Z,140.63
2023-07-14T08:48:25.012Z,140.63
2023-07-14T08:49:24.993Z,168.75
2023-07-14T08:50:26.908Z,213.75
2023-07-14T08:51:24.956Z,208.13
2023-07-14T08:52:24.943Z,208.13
2023-07-14T08:53:24.927Z,174.38
2023-07-14T08:54:24.932Z,225.00
2023-07-14T08:55:24.878Z,213.75
2023-07-14T08:56:24.878Z,213.75
2023-07-14T08:57:24.848Z,208.13
2023-07-14T08:58:24.831Z,213.75
2023-07-14T08:59:24.809Z,213.75
2023-07-14T09:00:24.791Z,185.63
2023-07-14T09:01:24.814Z,163.13
2023-07-14T09:02:24.814Z,163.13
2023-07-14T09:03:24.730Z,151.88
2023-07-14T09:04:24.753Z,157.50
2023-07-14T09:05:24.699Z,168.75
2023-07-14T09:06:24.683Z,168.75
2023-07-14T09:07:24.678Z,180.00
2023-07-14T09:08:24.646Z,185.63
2023-07-14T09:09:24.641Z,185.63
2023-07-14T09:10:24.606Z,213.75
2023-07-14T09:11:24.589Z,219.38
2023-07-14T09:12:24.584Z,196.88
2023-07-14T09:13:24.552Z,202.50
2023-07-14T09:14:24.531Z,196.88
2023-07-14T09:15:24.518Z,180.00
2023-07-14T09:16:24.513Z,180.00
2023-07-14T09:17:24.509Z,174.38
2023-07-14T09:18:24.576Z,185.63
2023-07-14T09:19:24.454Z,174.38
2023-07-14T09:20:24.437Z,180.00
2023-07-14T09:21:24.428Z,180.00
2023-07-14T09:22:24.400Z,180.00
2023-07-14T09:23:24.393Z,196.88
2023-07-14T09:24:24.353Z,202.50
2023-07-14T09:25:24.347Z,191.25
2023-07-14T09:26:24.321Z,180.00
2023-07-14T09:27:24.300Z,185.63
2023-07-14T09:28:24.311Z,168.75
2023-07-14T09:29:24.262Z,213.75
2023-07-14T09:30:24.250Z,202.50
2023-07-14T09:31:24.324Z,230.63
2023-07-14T09:32:24.247Z,213.75
2023-07-14T09:33:24.196Z,219.38
2023-07-14T09:34:24.185Z,219.38
2023-07-14T09:35:24.160Z,157.50
2023-07-14T09:36:24.149Z,202.50
2023-07-14T09:37:24.132Z,202.50
2023-07-14T09:38:24.105Z,208.13
2023-07-14T09:39:24.088Z,180.00
2023-07-14T09:40:24.071Z,151.88
2023-07-14T09:41:24.053Z,129.38
2023-07-14T09:42:24.125Z,140.63
2023-07-14T09:43:24.027Z,157.50
2023-07-14T09:44:24.005Z,151.88
2023-07-14T09:45:23.985Z,168.75
2023-07-14T09:46:23.981Z,135.00
2023-07-14T09:47:24.050Z,140.63
2023-07-14T09:48:23.930Z,174.38
2023-07-14T09:49:23.941Z,191.25
2023-07-14T09:50:23.897Z,185.63
2023-07-14T09:51:23.882Z,191.25
2023-07-14T09:52:23.862Z,196.88
2023-07-14T09:53:23.878Z,202.50
2023-07-14T09:54:23.827Z,180.00
2023-07-14T09:55:23.824Z,196.88
2023-07-14T09:56:23.786Z,196.88
2023-07-14T09:57:37.853Z,202.50
2023-07-14T09:58:23.780Z,157.50
2023-07-14T09:59:23.753Z,191.25
2023-07-14T10:00:23.718Z,202.50
2023-07-14T10:01:23.773Z,163.13
2023-07-14T10:02:23.719Z,208.13
2023-07-14T10:04:23.668Z,151.88
2023-07-14T10:05:23.634Z,146.25
2023-07-14T10:06:23.624Z,163.13
2023-07-14T10:07:23.624Z,168.75
2023-07-14T10:08:23.585Z,146.25
2023-07-14T10:09:23.565Z,151.88
2023-07-14T10:10:23.549Z,146.25
2023-07-14T10:11:23.530Z,151.88
2023-07-14T10:12:23.512Z,157.50
2023-07-14T10:13:23.515Z,168.75
2023-07-14T10:14:23.487Z,163.13
2023-07-14T10:15:23.462Z,174.38
2023-07-14T10:16:23.449Z,168.75
2023-07-14T10:17:23.523Z,163.13
2023-07-14T10:18:23.556Z,168.75
2023-07-14T10:19:23.431Z,174.38
2023-07-14T10:20:23.380Z,163.13
2023-07-14T10:21:23.363Z,236.25
2023-07-14T10:22:23.355Z,225.00
2023-07-14T10:23:23.327Z,174.38
2023-07-14T10:24:23.331Z,180.00
2023-07-14T10:25:23.293Z,174.38
2023-07-14T10:26:23.270Z,174.38
2023-07-14T10:27:23.252Z,174.38
2023-07-14T10:28:23.234Z,168.75
2023-07-14T10:29:23.249Z,163.13
2023-07-14T10:30:23.205Z,163.13
2023-07-14T10:31:23.221Z,157.50
2023-07-14T10:32:23.182Z,157.50
2023-07-14T10:33:23.175Z,157.50
2023-07-14T10:34:23.133Z,163.13
2023-07-14T10:35:23.115Z,157.50
2023-07-14T10:36:23.098Z,151.88
2023-07-14T10:37:23.088Z,146.25
2023-07-14T10:38:23.069Z,146.25
2023-07-14T10:39:23.046Z,146.25
2023-07-14T10:40:23.030Z,185.63
2023-07-14T10:41:23.146Z,151.88
2023-07-14T10:42:22.993Z,157.50
2023-07-14T10:43:22.974Z,185.63
2023-07-14T10:44:22.959Z,180.00
2023-07-14T10:45:22.943Z,168.75
2023-07-14T10:46:22.973Z,157.50
2023-07-14T10:47:22.962Z,157.50
2023-07-14T10:48:22.886Z,163.13
2023-07-14T10:49:22.868Z,219.38
2023-07-14T10:50:22.849Z,208.13
2023-07-14T10:51:22.839Z,213.75
2023-07-14T10:52:22.818Z,225.00
2023-07-14T10:53:22.802Z,163.13
2023-07-14T10:54:22.796Z,151.88
2023-07-14T10:55:22.771Z,151.88
2023-07-14T10:56:22.754Z,146.25
2023-07-14T10:57:22.733Z,140.63
2023-07-14T10:58:22.709Z,146.25
2023-07-14T10:59:22.693Z,146.25
2023-07-14T11:00:22.680Z,168.75
2023-07-14T11:01:22.698Z,163.13
2023-07-14T11:02:22.744Z,163.13
2023-07-14T11:03:22.690Z,146.25
2023-07-14T11:04:22.636Z,146.25
2023-07-14T11:05:22.637Z,140.63
2023-07-14T11:06:22.579Z,135.00
2023-07-14T11:07:22.559Z,129.38
2023-07-14T11:08:22.540Z,118.13
2023-07-14T11:09:22.522Z,106.88
2023-07-14T11:10:22.518Z,101.25
2023-07-14T11:11:22.530Z,101.25
2023-07-14T11:12:22.476Z,95.63
2023-07-14T11:13:22.451Z,95.63
2023-07-14T11:14:22.434Z,95.63
2023-07-14T11:15:22.422Z,101.25
2023-07-14T11:16:22.423Z,101.25
2023-07-14T11:17:22.381Z,106.88
2023-07-14T11:18:22.369Z,112.50
2023-07-14T11:19:23.623Z,140.63
2023-07-14T11:20:22.341Z,129.38
2023-07-14T11:21:22.318Z,129.38
2023-07-14T11:22:22.778Z,135.00
2023-07-14T11:23:22.286Z,168.75
2023-07-14T11:24:22.263Z,129.38
2023-07-14T11:25:22.255Z,129.38
2023-07-14T11:26:22.235Z,129.38
2023-07-14T11:27:22.210Z,157.50
2023-07-14T11:28:22.199Z,191.25
2023-07-14T11:29:22.198Z,157.50
2023-07-14T11:30:22.193Z,191.25
2023-07-14T11:31:22.144Z,191.25
2023-07-14T11:32:22.233Z,135.00
2023-07-14T11:33:22.104Z,135.00
2023-07-14T11:34:22.102Z,140.63
2023-07-14T11:35:22.089Z,146.25
2023-07-14T11:36:22.052Z,213.75
2023-07-14T11:37:22.039Z,208.13
2023-07-14T11:38:22.019Z,185.63
2023-07-14T11:39:22.000Z,157.50
2023-07-14T11:40:21.984Z,163.13
2023-07-14T11:44:32.431Z,174.38
2023-07-14T11:45:32.377Z,174.38
2023-07-14T11:46:32.402Z,180.00
2023-07-14T11:47:32.356Z,180.00
2023-07-14T11:48:32.329Z,157.50
2023-07-14T11:49:32.386Z,157.50
2023-07-14T11:51:33.411Z,151.88
2023-07-14T11:52:32.274Z,140.63
2023-07-14T11:53:32.239Z,140.63
2023-07-14T11:54:32.226Z,146.25
2023-07-14T11:55:32.208Z,157.50
2023-07-14T11:56:32.191Z,180.00
2023-07-14T11:57:32.213Z,174.38
2023-07-14T11:58:32.212Z,157.50
2023-07-14T11:59:32.150Z,174.38
2023-07-14T12:00:32.124Z,157.50
2023-07-14T12:01:32.118Z,157.50
2023-07-14T12:02:32.235Z,146.25
2023-07-14T12:03:34.360Z,146.25
2023-07-14T12:04:32.122Z,140.63
2023-07-14T12:05:32.038Z,151.88
2023-07-14T12:06:32.031Z,168.75
2023-07-14T12:07:32.694Z,168.75
2023-07-14T12:08:31.996Z,151.88
2023-07-14T12:09:31.973Z,140.63
2023-07-14T12:10:31.954Z,135.00
2023-07-14T12:11:41.336Z,129.38
2023-07-14T12:12:31.919Z,129.38
2023-07-14T12:13:31.902Z,123.75
2023-07-14T12:14:31.884Z,123.75
2023-07-14T12:15:31.874Z,123.75
2023-07-14T12:16:31.874Z,123.75
2023-07-14T12:17:31.909Z,118.13
2023-07-14T12:18:31.976Z,118.13
2023-07-14T12:19:31.818Z,118.13
2023-07-14T12:20:31.815Z,118.13
2023-07-14T12:21:32.248Z,118.13
2023-07-14T12:22:31.771Z,118.13
2023-07-14T12:23:31.738Z,118.13
2023-07-14T12:24:31.731Z,112.50
2023-07-14T12:25:31.704Z,106.88
2023-07-14T12:26:31.699Z,106.88
2023-07-14T12:27:31.666Z,101.25
2023-07-14T12:28:31.691Z,95.63
2023-07-14T12:29:41.177Z,95.63
2023-07-14T12:30:31.624Z,90.00
2023-07-14T12:31:31.614Z,90.00
2023-07-14T12:32:31.603Z,84.38
2023-07-14T12:33:31.562Z,84.38
2023-07-14T12:34:31.558Z,78.75
2023-07-14T12:35:31.531Z,78.75
2023-07-14T12:36:31.514Z,78.75
2023-07-14T12:37:31.491Z,78.75
2023-07-14T12:38:31.485Z,78.75
2023-07-14T12:39:31.464Z,78.75
2023-07-14T12:40:31.439Z,78.75
2023-07-14T12:41:31.425Z,78.75
2023-07-14T12:42:31.409Z,78.75
2023-07-14T12:43:31.393Z,78.75
2023-07-14T12:44:31.375Z,78.75
2023-07-14T12:45:31.359Z,78.75
2023-07-14T12:46:31.362Z,78.75
2023-07-14T12:47:31.344Z,78.75
2023-07-14T12:48:31.304Z,84.38
2023-07-14T12:49:31.286Z,84.38
2023-07-14T12:50:31.268Z,84.38
2023-07-14T12:51:31.255Z,90.00
2023-07-14T12:52:31.254Z,90.00
2023-07-14T12:53:31.216Z,90.00
2023-07-14T12:54:31.199Z,90.00
2023-07-14T12:55:31.195Z,90.00
2023-07-14T12:56:31.193Z,90.00
2023-07-14T12:57:31.149Z,84.38
2023-07-14T12:58:31.128Z,84.38
2023-07-14T12:59:31.124Z,84.38
2023-07-14T13:00:31.096Z,78.75
2023-07-14T13:01:31.138Z,78.75
2023-07-14T13:02:31.072Z,78.75
2023-07-14T13:03:31.044Z,78.75
2023-07-14T13:04:31.035Z,78.75
2023-07-14T13:05:31.008Z,73.13
2023-07-14T13:06:30.990Z,73.13
2023-07-14T13:07:30.972Z,78.75
2023-07-14T13:08:30.952Z,78.75
2023-07-14T13:09:30.938Z,78.75
2023-07-14T13:10:30.915Z,78.75
2023-07-14T13:11:30.951Z,78.75
2023-07-14T13:12:30.886Z,78.75
2023-07-14T13:13:30.857Z,78.75
2023-07-14T13:14:30.844Z,78.75
2023-07-14T13:15:30.827Z,84.38
2023-07-14T13:16:30.942Z,84.38
2023-07-14T13:17:30.829Z,84.38
2023-07-14T13:18:30.815Z,84.38
2023-07-14T13:19:30.758Z,84.38
2023-07-14T13:20:30.754Z,84.38
2023-07-14T13:21:30.724Z,84.38
2023-07-14T13:22:30.788Z,84.38
2023-07-14T13:23:30.690Z,78.75
2023-07-14T13:24:30.672Z,78.75
2023-07-14T13:25:30.648Z,78.75
2023-07-14T13:26:30.631Z,78.75
2023-07-14T13:27:30.616Z,84.38
2023-07-14T13:28:30.597Z,84.38
2023-07-14T13:29:30.585Z,84.38
2023-07-14T13:30:30.589Z,90.00
2023-07-14T13:31:30.569Z,90.00
2023-07-14T13:32:30.623Z,95.63
2023-07-14T13:33:30.509Z,101.25
2023-07-14T13:34:30.491Z,106.88
2023-07-14T13:35:33.940Z,106.88
2023-07-14T13:36:30.467Z,106.88
2023-07-14T13:37:30.464Z,106.88
2023-07-14T13:38:30.420Z,106.88
2023-07-14T13:39:30.418Z,112.50
2023-07-14T13:40:30.392Z,112.50
2023-07-14T13:41:30.371Z,112.50
2023-07-14T13:42:30.411Z,112.50
2023-07-14T13:43:30.337Z,112.50
2023-07-14T13:44:30.324Z,118.13
2023-07-14T13:45:30.323Z,123.75
2023-07-14T13:46:30.305Z,123.75
2023-07-14T13:47:30.294Z,129.38
2023-07-14T13:48:30.251Z,140.63
2023-07-14T13:49:30.232Z,146.25
2023-07-14T13:50:30.218Z,129.38
2023-07-14T13:51:30.207Z,135.00
2023-07-14T13:52:30.180Z,140.63
2023-07-14T13:53:30.165Z,151.88
2023-07-14T13:54:30.143Z,151.88
2023-07-14T13:55:30.140Z,146.25
2023-07-14T13:56:30.136Z,146.25
2023-07-14T13:57:30.099Z,151.88
2023-07-14T13:58:30.070Z,151.88
2023-07-14T13:59:30.060Z,151.88
2023-07-14T14:00:30.041Z,151.88
2023-07-14T14:01:30.105Z,157.50
2023-07-14T14:02:30.033Z,168.75
2023-07-14T14:03:30.028Z,168.75
2023-07-14T14:04:30.035Z,163.13
2023-07-14T14:05:29.961Z,168.75
2023-07-14T14:06:29.939Z,151.88
2023-07-14T14:07:29.926Z,168.75
2023-07-14T14:08:29.913Z,168.75
2023-07-14T14:09:29.887Z,163.13
2023-07-14T14:10:29.878Z,163.13
2023-07-14T14:11:29.854Z,151.88
2023-07-14T14:12:29.884Z,140.63
2023-07-14T14:13:29.829Z,146.25
2023-07-14T14:14:29.804Z,151.88
2023-07-14T14:15:29.788Z,151.88
2023-07-14T14:16:29.785Z,157.50
2023-07-14T14:17:29.801Z,151.88
2023-07-14T14:18:29.737Z,151.88
2023-07-14T14:19:29.733Z,151.88
2023-07-14T14:20:29.717Z,146.25
2023-07-14T14:21:29.690Z,146.25
2023-07-14T14:22:29.685Z,146.25
2023-07-14T14:23:29.657Z,140.63
2023-07-14T14:24:29.639Z,135.00
2023-07-14T14:25:29.714Z,123.75
2023-07-14T14:26:29.607Z,106.88
2023-07-14T14:27:29.592Z,106.88
2023-07-14T14:28:29.596Z,135.00
2023-07-14T14:29:29.565Z,140.63
2023-07-14T14:30:29.545Z,140.63
2023-07-14T14:31:29.571Z,140.63
2023-07-14T14:32:29.504Z,140.63
2023-07-14T14:33:29.565Z,140.63
2023-07-14T14:34:29.478Z,140.63
2023-07-14T14:35:29.473Z,135.00
2023-07-14T14:36:29.440Z,135.00
2023-07-14T14:37:29.423Z,135.00
2023-07-14T14:38:43.999Z,135.00
2023-07-14T14:39:29.395Z,129.38
2023-07-14T14:40:29.383Z,129.38
2023-07-14T14:41:29.408Z,129.38
2023-07-14T14:42:29.345Z,129.38
2023-07-14T14:43:29.402Z,129.38
2023-07-14T14:44:29.317Z,129.38
2023-07-14T14:45:29.296Z,129.38
2023-07-14T14:46:29.319Z,129.38
2023-07-14T14:47:29.296Z,123.75
2023-07-14T14:48:40.198Z,123.75
2023-07-14T14:49:29.227Z,123.75
2023-07-14T14:50:29.218Z,123.75
2023-07-14T14:51:29.208Z,123.75
2023-07-14T14:52:29.187Z,123.75
2023-07-14T14:53:29.175Z,123.75
2023-07-14T14:54:29.149Z,123.75
2023-07-14T14:55:29.133Z,123.75
2023-07-14T14:56:29.120Z,123.75
2023-07-14T14:57:29.099Z,123.75
2023-07-14T14:58:29.088Z,123.75
2023-07-14T14:59:29.071Z,118.13
2023-07-14T15:00:29.046Z,118.13
2023-07-14T15:01:29.055Z,118.13
2023-07-14T15:02:29.090Z,118.13
2023-07-14T15:03:29.057Z,118.13
2023-07-14T15:04:29.017Z,118.13
2023-07-14T15:05:28.968Z,118.13
2023-07-14T15:06:28.962Z,118.13
2023-07-14T15:07:28.932Z,118.13
2023-07-14T15:08:28.915Z,118.13
2023-07-14T15:09:28.909Z,118.13
2023-07-14T15:10:28.883Z,112.50
2023-07-14T15:11:28.874Z,112.50
2023-07-14T15:12:28.856Z,101.25
2023-07-14T15:13:28.837Z,106.88
2023-07-14T15:14:28.835Z,112.50
2023-07-14T15:15:28.825Z,112.50
2023-07-14T15:16:28.832Z,112.50
2023-07-14T15:17:28.789Z,106.88
2023-07-14T15:18:28.757Z,106.88
2023-07-14T15:19:28.742Z,106.88
2023-07-14T15:20:28.722Z,101.25
2023-07-14T15:21:28.705Z,101.25
2023-07-14T15:22:28.716Z,101.25
2023-07-14T15:23:28.693Z,101.25
2023-07-14T15:24:28.657Z,101.25
2023-07-14T15:25:28.640Z,101.25
2023-07-14T15:26:28.629Z,101.25
2023-07-14T15:27:28.618Z,95.63
2023-07-14T15:28:28.586Z,95.63
2023-07-14T15:29:28.573Z,95.63
2023-07-14T15:30:28.549Z,95.63
2023-07-14T15:31:28.567Z,95.63
2023-07-14T15:32:28.598Z,95.63
2023-07-14T15:33:28.564Z,95.63
2023-07-14T15:34:28.488Z,95.63
2023-07-14T15:35:29.614Z,95.63
2023-07-14T15:36:28.465Z,95.63
2023-07-14T15:37:28.452Z,95.63
2023-07-14T15:38:28.424Z,95.63
2023-07-14T15:39:28.405Z,90.00
2023-07-14T15:40:28.387Z,90.00
2023-07-14T15:41:28.376Z,90.00
2023-07-14T15:42:28.360Z,90.00
2023-07-14T15:43:28.347Z,90.00
2023-07-14T15:44:28.338Z,90.00
2023-07-14T15:45:28.325Z,90.00
2023-07-14T15:46:28.326Z,90.00
2023-07-14T15:47:28.326Z,90.00
2023-07-14T15:48:40.379Z,90.00
2023-07-14T15:49:28.245Z,90.00
2023-07-14T15:50:28.229Z,90.00
2023-07-14T15:51:28.212Z,90.00
2023-07-14T15:52:28.206Z,90.00
2023-07-14T15:53:28.172Z,90.00
2023-07-14T15:54:28.159Z,90.00
2023-07-14T15:55:28.144Z,90.00
2023-07-14T15:56:28.147Z,90.00
2023-07-14T15:57:28.110Z,90.00
2023-07-14T15:58:28.093Z,84.38
2023-07-14T15:59:28.073Z,84.38
2023-07-14T16:00:28.115Z,84.38
2023-07-14T16:01:30.191Z,84.38
2023-07-14T16:02:28.122Z,84.38
2023-07-14T16:03:28.050Z,84.38
2023-07-14T16:04:27.996Z,84.38
2023-07-14T16:05:28.010Z,84.38
2023-07-14T16:06:28.001Z,84.38
2023-07-14T16:07:27.945Z,84.38
2023-07-14T16:08:27.931Z,84.38
2023-07-14T16:09:27.908Z,84.38
2023-07-14T16:10:27.898Z,84.38
2023-07-14T16:11:27.880Z,84.38
2023-07-14T16:12:27.893Z,84.38
2023-07-14T16:13:27.852Z,84.38
2023-07-14T16:14:27.832Z,84.38
2023-07-14T16:15:27.814Z,84.38
2023-07-14T16:16:27.819Z,78.75
2023-07-14T16:17:27.799Z,78.75
2023-07-14T16:18:27.764Z,78.75
2023-07-14T16:19:28.419Z,78.75
2023-07-14T16:20:27.736Z,78.75
2023-07-14T16:21:27.732Z,73.13
2023-07-14T16:22:27.711Z,67.50
2023-07-14T16:23:27.698Z,78.75
2023-07-14T16:24:27.667Z,78.75
2023-07-14T16:25:27.653Z,78.75
2023-07-14T16:26:27.636Z,78.75
2023-07-14T16:27:27.614Z,78.75
2023-07-14T16:28:27.597Z,78.75
2023-07-14T16:29:27.586Z,78.75
2023-07-14T16:30:27.571Z,78.75
2023-07-14T16:31:27.634Z,73.13
2023-07-14T16:32:27.603Z,73.13
2023-07-14T16:33:27.519Z,73.13
2023-07-14T16:34:27.498Z,73.13
2023-07-14T16:35:27.491Z,73.13
2023-07-14T16:36:27.464Z,73.13
2023-07-14T16:37:27.463Z,73.13
2023-07-14T16:38:27.432Z,73.13
2023-07-14T16:39:27.415Z,73.13
2023-07-14T16:40:27.409Z,73.13
2023-07-14T16:41:27.426Z,73.13
2023-07-14T16:42:27.366Z,73.13
2023-07-14T16:43:27.349Z,73.13
2023-07-14T16:44:27.333Z,67.50
2023-07-14T16:45:27.312Z,67.50
2023-07-14T16:46:27.355Z,67.50
2023-07-14T16:47:27.297Z,67.50
2023-07-14T16:48:27.272Z,67.50
2023-07-14T16:49:27.254Z,67.50
2023-07-14T16:50:27.231Z,67.50
2023-07-14T16:51:27.227Z,67.50
2023-07-14T16:52:27.274Z,67.50
2023-07-14T16:53:27.199Z,67.50
2023-07-14T16:54:27.161Z,67.50
2023-07-14T16:55:27.150Z,67.50
2023-07-14T16:56:27.157Z,67.50
2023-07-14T16:57:27.111Z,61.88
2023-07-14T16:58:27.096Z,61.88
2023-07-14T16:59:27.079Z,61.88
2023-07-14T17:00:27.084Z,61.88
2023-07-14T17:01:27.102Z,61.88
2023-07-14T17:02:27.074Z,61.88
2023-07-14T17:03:27.014Z,56.25
2023-07-14T17:04:27.079Z,56.25
2023-07-14T17:05:26.980Z,56.25
2023-07-14T17:06:42.027Z,50.63
2023-07-14T17:07:26.949Z,56.25
2023-07-14T17:08:26.931Z,56.25
2023-07-14T17:09:26.917Z,56.25
2023-07-14T17:10:26.892Z,56.25
2023-07-14T17:11:26.874Z,50.63
2023-07-14T17:12:26.908Z,56.25
2023-07-14T17:13:27.305Z,50.63
2023-07-14T17:14:26.828Z,50.63
2023-07-14T17:15:26.816Z,56.25
2023-07-14T17:16:26.883Z,56.25
2023-07-14T17:17:26.856Z,50.63
2023-07-14T17:18:26.757Z,50.63
2023-07-14T17:19:26.750Z,50.63
2023-07-14T17:20:26.720Z,50.63
2023-07-14T17:21:26.704Z,50.63
2023-07-14T17:22:26.753Z,50.63
2023-07-14T17:23:26.673Z,50.63
2023-07-14T17:24:26.663Z,50.63
2023-07-14T17:25:26.639Z,50.63
2023-07-14T17:26:26.621Z,50.63
2023-07-14T17:27:26.614Z,50.63
2023-07-14T17:28:26.580Z,50.63
2023-07-14T17:29:26.570Z,56.25
2023-07-14T17:30:26.567Z,61.88
2023-07-14T17:31:26.608Z,78.75
2023-07-14T17:32:26.525Z,78.75
2023-07-14T17:33:26.507Z,78.75
2023-07-14T17:34:26.480Z,73.13
2023-07-14T17:35:26.467Z,73.13
2023-07-14T17:36:26.451Z,67.50
2023-07-14T17:37:26.432Z,73.13
2023-07-14T17:38:26.414Z,67.50
2023-07-14T17:39:45.568Z,61.88
2023-07-14T17:40:26.386Z,61.88
2023-07-14T17:41:26.404Z,61.88
2023-07-14T17:42:26.346Z,61.88
2023-07-14T17:43:26.346Z,61.88
2023-07-14T17:44:26.317Z,67.50
2023-07-14T17:45:26.298Z,67.50
2023-07-14T17:46:26.304Z,67.50
2023-07-14T17:47:26.282Z,61.88
2023-07-14T17:48:26.253Z,56.25
2023-07-14T17:49:26.232Z,50.63
2023-07-14T17:50:26.218Z,56.25
2023-07-14T17:51:26.200Z,56.25
2023-07-14T17:52:26.192Z,56.25
2023-07-14T17:53:26.172Z,50.63
2023-07-14T17:54:26.186Z,56.25
2023-07-14T17:55:26.144Z,56.25
2023-07-14T17:56:26.121Z,56.25
2023-07-14T17:57:26.109Z,50.63
2023-07-14T17:58:26.153Z,50.63
2023-07-14T17:59:26.109Z,50.63
2023-07-14T18:00:26.064Z,45.00
2023-07-14T18:01:26.114Z,45.00
2023-07-14T18:02:26.112Z,39.38
2023-07-14T18:03:26.214Z,50.63
2023-07-14T18:04:25.992Z,50.63
2023-07-14T18:05:25.978Z,45.00
2023-07-14T18:06:25.963Z,39.38
2023-07-14T18:07:25.955Z,39.38
2023-07-14T18:08:25.946Z,33.75
2023-07-14T18:09:25.917Z,33.75
2023-07-14T18:10:25.917Z,33.75
2023-07-14T18:11:26.312Z,33.75
2023-07-14T18:12:25.864Z,28.13
2023-07-14T18:13:25.847Z,28.13
2023-07-14T18:14:25.827Z,28.13
2023-07-14T18:15:25.823Z,33.75
2023-07-14T18:16:25.843Z,28.13
2023-07-14T18:17:25.856Z,28.13
2023-07-14T18:18:25.777Z,28.13
2023-07-14T18:19:25.749Z,28.13
2023-07-14T18:20:25.732Z,28.13
2023-07-14T18:21:25.716Z,28.13
2023-07-14T18:22:25.717Z,28.13
2023-07-14T18:23:25.680Z,28.13
2023-07-14T18:24:41.759Z,28.13
2023-07-14T18:25:25.653Z,28.13
2023-07-14T18:26:25.633Z,28.13
2023-07-14T18:27:25.631Z,28.13
2023-07-14T18:28:25.604Z,22.50
2023-07-14T18:29:25.594Z,22.50
2023-07-14T18:30:25.563Z,22.50
2023-07-14T18:31:25.638Z,22.50
2023-07-14T18:32:25.579Z,22.50
2023-07-14T18:33:25.518Z,22.50
2023-07-14T18:34:25.500Z,16.88
2023-07-14T18:35:25.481Z,16.88
2023-07-14T18:36:25.463Z,16.88
2023-07-14T18:37:25.451Z,16.88
2023-07-14T18:38:25.427Z,16.88
2023-07-14T18:39:25.410Z,16.88
2023-07-14T18:40:25.404Z,16.88
2023-07-14T18:41:27.018Z,16.88
2023-07-14T18:42:25.835Z,16.88
2023-07-14T18:43:25.345Z,16.88
2023-07-14T18:44:25.322Z,16.88
2023-07-14T18:45:25.303Z,16.88
2023-07-14T18:46:25.299Z,11.25
2023-07-14T18:47:25.305Z,11.25
2023-07-14T18:48:25.253Z,11.25
2023-07-14T18:49:25.234Z,11.25
2023-07-14T18:50:25.217Z,11.25
2023-07-14T18:51:25.200Z,11.25
2023-07-14T18:52:25.191Z,11.25
2023-07-14T18:53:25.161Z,11.25
2023-07-14T18:54:25.145Z,11.25
2023-07-14T18:55:25.130Z,11.25
2023-07-14T18:56:25.107Z,11.25
2023-07-14T18:57:25.097Z,11.25
2023-07-14T18:58:25.071Z,5.63
2023-07-14T18:59:25.055Z,5.63
2023-07-14T19:00:25.039Z,5.63
2023-07-14T19:01:25.087Z,5.63
2023-07-14T19:02:24.997Z,5.63
2023-07-14T19:03:27.142Z,5.63
2023-07-14T19:04:24.962Z,5.63
2023-07-14T19:05:24.940Z,5.63
2023-07-14T19:06:24.924Z,5.63
2023-07-14T19:07:24.909Z,5.63
2023-07-14T19:08:24.939Z,5.63
2023-07-14T19:09:24.864Z,5.63
2023-07-14T19:10:24.845Z,5.63
2023-07-14T19:11:24.939Z,5.63
2023-07-14T19:12:24.819Z,0.00
2023-07-14T19:13:24.838Z,0.00
2023-07-14T19:14:24.810Z,0.00
2023-07-14T19:15:24.778Z,0.00
2023-07-14T19:16:24.840Z,0.00
2023-07-14T19:17:28.311Z,0.00
2023-07-14T19:18:24.731Z,0.00
2023-07-14T19:19:24.683Z,0.00
2023-07-14T19:20:24.689Z,0.00
2023-07-14T19:21:24.637Z,0.00
2023-07-14T19:22:24.679Z,0.00
2023-07-14T19:23:24.605Z,0.00
2023-07-14T19:24:24.581Z,0.00
2023-07-14T19:25:24.562Z,0.00
2023-07-14T19:26:24.542Z,0.00
2023-07-14T19:27:24.526Z,0.00
2023-07-14T19:28:24.509Z,0.00
2023-07-14T19:29:24.499Z,0.00
2023-07-14T19:30:24.489Z,0.00
2023-07-14T19:31:24.478Z,0.00
2023-07-14T19:32:26.446Z,0.00
2023-07-14T19:33:24.399Z,0.00
2023-07-14T19:34:24.388Z,0.00
2023-07-14T19:35:24.381Z,0.00
2023-07-14T19:36:24.352Z,0.00
2023-07-14T19:37:24.323Z,0.00
2023-07-14T19:38:24.304Z,0.00
2023-07-14T19:39:24.298Z,0.00
2023-07-14T19:40:24.262Z,0.00
2023-07-14T19:41:24.244Z,0.00
2023-07-14T19:42:24.232Z,0.00
2023-07-14T19:43:24.208Z,0.00
2023-07-14T19:44:24.197Z,0.00
2023-07-14T19:45:24.162Z,0.00
2023-07-14T19:46:24.194Z,0.00
2023-07-14T19:47:24.196Z,0.00
2023-07-14T19:48:24.098Z,0.00
2023-07-14T19:49:24.103Z,0.00
2023-07-14T19:50:24.111Z,0.00
2023-07-14T19:51:24.044Z,0.00
2023-07-14T19:52:24.022Z,0.00
2023-07-14T19:53:23.997Z,0.00
2023-07-14T19:54:23.972Z,0.00
2023-07-14T19:55:23.976Z,0.00
2023-07-14T19:56:23.942Z,0.00
2023-07-14T19:57:23.922Z,0.00
2023-07-14T19:58:23.895Z,0.00
2023-07-14T19:59:23.943Z,0.00
2023-07-14T20:00:23.848Z,0.00
2023-07-14T20:01:23.899Z,0.00
2023-07-14T20:02:23.864Z,0.00
2023-07-14T20:03:23.789Z,0.00
2023-07-14T20:04:23.850Z,0.00